Time;durP1;ratioP1;P1;durP2;ratioP2;P2;SDS_P1;SDS_P2;PMS_P1;PMS_P2;Temp;Humidity;BMP_temperature;BMP_pressure;BME280_temperature;BME280_humidity;BME280_pressure;Samples;Min_cycle;Max_cycle;Signal;HPM_P1;HPM_P2
2021/04/12 00:01:43;;;;;;;1.50;1.10;;;2.70;88.60;;;;;;4976454;28;20605;-67
2021/04/12 00:04:40;;;;;;;2.47;1.42;;;2.60;88.90;;;;;;4982362;28;20043;-68
2021/04/12 00:07:33;;;;;;;3.53;1.30;;;2.50;89.30;;;;;;4972993;28;20042;-68
2021/04/12 00:10:26;;;;;;;3.80;1.52;;;2.40;89.80;;;;;;4976740;28;20561;-68
2021/04/12 00:13:04;;;;;;;5.45;1.48;;;2.30;90.20;;;;;;4980415;28;20049;-68
2021/04/12 00:16:05;;;;;;;7.57;1.60;;;2.20;90.40;;;;;;4974966;28;20402;-68
2021/04/12 00:18:38;;;;;;;3.20;1.52;;;2.20;90.60;;;;;;4978535;28;20121;-68
2021/04/12 00:21:12;;;;;;;8.63;1.98;;;2.10;90.90;;;;;;4975205;28;20174;-67
2021/04/12 00:23:49;;;;;;;5.03;1.83;;;2.00;91.10;;;;;;4974378;28;20256;-68
2021/04/12 00:26:46;;;;;;;5.18;1.80;;;1.90;91.30;;;;;;4975618;28;20490;-68
2021/04/12 00:29:21;;;;;;;6.85;2.15;;;1.90;91.70;;;;;;4976461;28;20033;-68
2021/04/12 00:31:58;;;;;;;7.32;2.13;;;1.80;91.80;;;;;;4974155;28;20049;-68
2021/04/12 00:34:42;;;;;;;4.40;2.20;;;1.80;91.90;;;;;;4976468;28;20049;-68
2021/04/12 00:37:38;;;;;;;5.68;2.35;;;1.70;92.00;;;;;;4975878;28;20038;-68
2021/04/12 00:40:28;;;;;;;7.10;2.60;;;1.70;92.00;;;;;;4980639;28;20065;-68
2021/04/12 00:43:32;;;;;;;4.77;2.00;;;1.70;92.20;;;;;;4977456;28;20031;-67
2021/04/12 00:46:21;;;;;;;6.95;2.30;;;1.60;92.30;;;;;;4953721;28;20681;-68
2021/04/12 00:49:08;;;;;;;5.90;2.28;;;1.60;92.20;;;;;;4984113;28;20217;-68
2021/04/12 00:51:48;;;;;;;4.82;2.25;;;1.60;92.30;;;;;;4972151;28;20049;-68
2021/04/12 00:54:41;;;;;;;3.45;1.98;;;1.50;92.30;;;;;;4979582;28;20050;-68
2021/04/12 00:57:27;;;;;;;7.88;2.25;;;1.50;92.50;;;;;;4976406;28;20446;-68
2021/04/12 01:00:14;;;;;;;6.90;2.45;;;1.40;92.60;;;;;;4978708;28;20122;-68
2021/04/12 01:03:03;;;;;;;6.28;2.50;;;1.30;92.70;;;;;;4978298;28;20191;-68
2021/04/12 01:05:47;;;;;;;6.22;2.35;;;1.30;92.90;;;;;;4980783;28;20304;-68
2021/04/12 01:08:13;;;;;;;6.63;2.30;;;1.30;93.00;;;;;;4985566;28;20042;-68
2021/04/12 01:11:04;;;;;;;6.47;2.60;;;1.30;93.00;;;;;;4987337;28;20402;-68
2021/04/12 01:13:45;;;;;;;6.50;2.47;;;1.30;93.20;;;;;;4980230;28;20026;-68
2021/04/12 01:16:26;;;;;;;9.10;3.00;;;1.20;93.10;;;;;;4982639;28;20694;-66
2021/04/12 01:19:12;;;;;;;;;;;1.30;93.10;;;;;;4987201;28;20434;-68
2021/04/12 01:22:21;;;;;;;8.10;2.08;;;1.30;93.10;;;;;;4987601;28;19918;-68
2021/04/12 01:25:17;;;;;;;7.70;2.45;;;1.30;93.10;;;;;;4980100;28;20023;-68
2021/04/12 01:28:20;;;;;;;12.32;2.60;;;1.20;93.10;;;;;;4986380;28;20052;-68
2021/04/12 01:31:23;;;;;;;8.25;2.25;;;1.10;93.30;;;;;;5001002;28;20034;-68
2021/04/12 01:34:01;;;;;;;6.65;2.58;;;1.10;93.40;;;;;;4978708;28;20054;-68
2021/04/12 01:36:46;;;;;;;8.48;2.90;;;1.00;93.50;;;;;;4984349;28;20121;-68
2021/04/12 01:39:30;;;;;;;6.85;2.97;;;1.00;93.70;;;;;;4978764;28;20030;-67
2021/04/12 01:42:03;;;;;;;5.13;2.60;;;1.00;93.80;;;;;;4986586;28;20037;-67
2021/04/12 01:45:04;;;;;;;9.63;2.67;;;0.90;93.90;;;;;;4979063;28;20101;-68
2021/04/12 01:48:07;;;;;;;6.53;2.15;;;0.90;94.20;;;;;;4982965;28;20042;-69
2021/04/12 01:50:55;;;;;;;11.82;3.28;;;0.80;94.20;;;;;;4983609;28;20417;-68
2021/04/12 01:53:27;;;;;;;7.20;2.58;;;0.80;94.30;;;;;;4977811;28;20041;-68
2021/04/12 01:56:12;;;;;;;7.13;3.17;;;0.70;94.40;;;;;;4987411;28;20498;-68
2021/04/12 01:59:10;;;;;;;6.70;2.97;;;0.70;94.60;;;;;;4980672;28;20027;-68
2021/04/12 02:02:00;;;;;;;5.05;2.85;;;0.70;94.70;;;;;;4986056;28;20446;-68
2021/04/12 02:04:44;;;;;;;9.55;3.17;;;0.70;94.80;;;;;;4979758;28;20125;-66
2021/04/12 02:07:27;;;;;;;10.93;3.15;;;0.60;94.70;;;;;;4985801;28;20074;-68
2021/04/12 02:10:10;;;;;;;7.10;3.15;;;0.60;94.80;;;;;;4984939;28;20574;-68
2021/04/12 02:12:57;;;;;;;9.65;3.17;;;0.60;94.80;;;;;;4986934;28;20393;-68
2021/04/12 02:15:37;;;;;;;11.23;3.30;;;0.50;94.90;;;;;;4983168;28;20579;-68
2021/04/12 02:18:40;;;;;;;11.98;3.40;;;0.40;94.90;;;;;;4983764;28;20109;-67
2021/04/12 02:21:34;;;;;;;11.63;3.58;;;0.30;94.90;;;;;;4982097;28;20077;-68
2021/04/12 02:24:06;;;;;;;13.93;4.10;;;0.30;95.10;;;;;;4976662;28;20115;-67
2021/04/12 02:26:52;;;;;;;18.13;4.15;;;0.30;95.10;;;;;;4982047;28;20422;-68
2021/04/12 02:29:30;;;;;;;7.82;3.78;;;0.20;95.10;;;;;;4980347;28;20652;-68
2021/04/12 02:32:18;;;;;;;16.83;4.38;;;0.20;95.10;;;;;;4972229;28;20034;-68
2021/04/12 02:35:11;;;;;;;11.57;4.15;;;0.10;95.10;;;;;;4973893;28;20081;-68
2021/04/12 02:37:54;;;;;;;9.25;3.75;;;0.10;95.30;;;;;;4980472;28;20125;-68
2021/04/12 02:40:22;;;;;;;9.48;4.28;;;0.00;95.30;;;;;;4985886;28;20030;-68
2021/04/12 02:43:19;;;;;;;11.52;4.15;;;0.00;95.30;;;;;;4988944;28;20038;-68
2021/04/12 02:46:02;;;;;;;10.88;4.32;;;0.00;95.40;;;;;;4989207;28;20029;-67
2021/04/12 02:48:27;;;;;;;11.07;4.18;;;0.00;95.40;;;;;;4985073;28;20070;-68
2021/04/12 02:51:06;;;;;;;9.25;3.83;;;0.00;95.50;;;;;;4992424;28;20105;-68
2021/04/12 02:54:03;;;;;;;10.10;4.28;;;-3276.70;95.60;;;;;;4989487;28;20038;-68
2021/04/12 02:56:40;;;;;;;16.83;4.00;;;-3276.60;95.60;;;;;;4987806;28;20299;-66
2021/04/12 02:59:24;;;;;;;16.27;4.13;;;-3276.60;95.60;;;;;;4981868;28;20030;-68
2021/04/12 03:02:05;;;;;;;13.80;4.40;;;-3276.50;95.60;;;;;;4990707;28;20030;-68
2021/04/12 03:04:45;;;;;;;14.10;5.50;;;-3276.40;95.70;;;;;;4983067;28;20031;-67
2021/04/12 03:07:50;;;;;;;16.23;5.28;;;-3276.50;95.80;;;;;;4984713;28;20762;-68
2021/04/12 03:10:23;;;;;;;13.13;5.22;;;-3276.30;95.70;;;;;;4991519;28;20034;-68
2021/04/12 03:13:11;;;;;;;14.40;5.43;;;-3276.40;95.90;;;;;;4987779;28;20045;-68
2021/04/12 03:15:48;;;;;;;12.10;5.57;;;-3276.40;96.00;;;;;;4990306;28;20038;-68
2021/04/12 03:18:55;;;;;;;17.60;5.10;;;-3276.40;96.10;;;;;;4981649;28;20064;-68
2021/04/12 03:21:21;;;;;;;19.27;4.28;;;-3276.50;96.10;;;;;;4982768;28;20420;-68
2021/04/12 03:23:55;;;;;;;9.13;4.47;;;-3276.40;96.00;;;;;;4981181;28;20113;-68
2021/04/12 03:26:28;;;;;;;13.63;4.07;;;-3276.40;96.10;;;;;;4990968;28;20483;-67
2021/04/12 03:29:09;;;;;;;12.98;4.35;;;-3276.30;96.10;;;;;;4987668;28;20085;-67
2021/04/12 03:31:53;;;;;;;13.73;4.35;;;-3276.40;96.10;;;;;;4974311;28;20414;-68
2021/04/12 03:34:48;;;;;;;17.80;4.40;;;-3276.30;96.10;;;;;;4979667;28;20490;-68
2021/04/12 03:37:33;;;;;;;15.88;4.43;;;-3276.20;96.10;;;;;;4981179;28;20550;-68
2021/04/12 03:40:01;;;;;;;14.13;4.15;;;-3276.30;96.20;;;;;;4973835;28;20388;-68
2021/04/12 03:43:05;;;;;;;16.35;4.78;;;-3276.40;96.30;;;;;;4981279;28;20030;-68
2021/04/12 03:46:02;;;;;;;14.55;4.38;;;-3276.40;96.30;;;;;;4980576;28;20042;-68
2021/04/12 03:48:30;;;;;;;16.88;5.13;;;-3276.40;96.20;;;;;;4976262;28;20037;-68
2021/04/12 03:51:04;;;;;;;18.05;4.90;;;-3276.40;96.30;;;;;;4983194;28;20027;-68
2021/04/12 03:53:57;;;;;;;16.77;5.03;;;-3276.30;96.30;;;;;;4980827;28;20034;-68
2021/04/12 03:56:38;;;;;;;16.90;5.40;;;-3276.30;96.20;;;;;;4977189;28;20039;-68
2021/04/12 03:59:36;;;;;;;14.95;5.20;;;-3276.20;96.20;;;;;;4982743;28;20070;-68
2021/04/12 04:02:33;;;;;;;14.68;4.63;;;-3276.20;96.30;;;;;;4959264;28;20047;-68
2021/04/12 04:05:18;;;;;;;17.17;5.53;;;-3276.20;96.20;;;;;;4985942;28;20109;-67
2021/04/12 04:07:58;;;;;;;14.55;4.82;;;-3276.10;96.20;;;;;;4984691;28;20281;-68
2021/04/12 04:10:43;;;;;;;15.93;4.60;;;-3276.10;96.20;;;;;;4987062;28;20035;-68
2021/04/12 04:13:49;;;;;;;13.57;4.75;;;-3276.10;96.30;;;;;;4976036;28;20142;-68
2021/04/12 04:16:33;;;;;;;10.70;4.50;;;-3276.10;96.40;;;;;;4972980;28;20502;-66
2021/04/12 04:19:24;;;;;;;16.83;4.70;;;-3276.20;96.40;;;;;;4984924;28;20537;-67
2021/04/12 04:22:23;;;;;;;18.73;5.22;;;-3276.20;96.40;;;;;;4978164;28;20026;-68
2021/04/12 04:24:57;;;;;;;18.80;4.97;;;-3276.20;96.40;;;;;;4986275;28;20038;-68
2021/04/12 04:27:45;;;;;;;19.73;5.78;;;-3276.30;96.40;;;;;;4967530;28;20459;-67
2021/04/12 04:30:34;;;;;;;15.82;4.68;;;-3276.30;96.40;;;;;;4978088;28;20445;-68
2021/04/12 04:33:30;;;;;;;15.40;5.70;;;-3276.30;96.40;;;;;;4978828;28;20042;-67
2021/04/12 04:36:07;;;;;;;22.48;5.57;;;-3276.30;96.30;;;;;;4979512;28;20115;-67
2021/04/12 04:38:39;;;;;;;22.63;5.38;;;-3276.20;96.30;;;;;;4982035;28;20042;-68
2021/04/12 04:41:29;;;;;;;21.08;6.28;;;-3276.20;96.20;;;;;;4985765;28;20035;-68
2021/04/12 04:44:31;;;;;;;19.30;5.72;;;-3276.30;96.30;;;;;;4972992;28;20042;-68
2021/04/12 04:47:15;;;;;;;22.65;6.03;;;-3276.10;96.20;;;;;;4975880;28;20685;-67
2021/04/12 04:50:11;;;;;;;15.88;5.72;;;-3276.30;96.30;;;;;;4981143;28;20137;-68
2021/04/12 04:53:02;;;;;;;17.60;5.38;;;-3276.30;96.30;;;;;;4980768;28;20077;-68
2021/04/12 04:55:28;;;;;;;;;;;-3276.40;96.30;;;;;;4976465;28;20036;-67
2021/04/12 04:58:22;;;;;;;13.25;5.45;;;-3276.40;96.20;;;;;;4973111;28;20012;-67
2021/04/12 05:00:54;;;;;;;18.38;5.72;;;-3276.50;96.20;;;;;;4980718;28;20026;-67
2021/04/12 05:03:50;;;;;;;14.80;5.78;;;-3276.50;96.10;;;;;;4972067;28;20042;-68
2021/04/12 05:06:36;;;;;;;22.10;6.05;;;-3276.60;96.10;;;;;;4974093;28;20027;-67
2021/04/12 05:09:27;;;;;;;16.35;6.03;;;-3276.70;96.00;;;;;;4987648;28;20026;-68
2021/04/12 05:12:19;;;;;;;23.73;5.80;;;-3276.70;95.90;;;;;;4972853;28;20042;-68
2021/04/12 05:15:12;;;;;;;15.85;5.18;;;0.00;95.80;;;;;;4982151;28;20027;-68
2021/04/12 05:17:52;;;;;;;11.93;5.05;;;0.00;95.60;;;;;;4982290;28;20212;-68
2021/04/12 05:20:43;;;;;;;15.68;5.63;;;0.10;95.50;;;;;;4971434;28;20090;-67
2021/04/12 05:23:42;;;;;;;22.60;5.55;;;0.20;95.10;;;;;;4971162;28;20045;-67
2021/04/12 05:26:16;;;;;;;13.98;5.20;;;0.30;95.00;;;;;;4968601;28;20038;-67
2021/04/12 05:28:48;;;;;;;23.83;6.07;;;0.40;94.70;;;;;;4975592;28;20018;-67
2021/04/12 05:31:51;;;;;;;14.73;5.28;;;0.40;94.70;;;;;;4981993;28;20186;-67
2021/04/12 05:34:53;;;;;;;9.80;5.03;;;0.50;94.40;;;;;;4982571;28;20328;-67
2021/04/12 05:37:56;;;;;;;10.57;5.25;;;0.60;94.20;;;;;;4981700;28;20038;-67
2021/04/12 05:40:51;;;;;;;13.77;4.68;;;0.70;94.20;;;;;;4981875;28;20120;-65
2021/04/12 05:43:31;;;;;;;11.10;5.30;;;0.80;93.90;;;;;;4968062;28;20037;-67
2021/04/12 05:46:19;;;;;;;14.70;5.22;;;0.90;93.60;;;;;;4978386;28;20592;-67
2021/04/12 05:49:19;;;;;;;9.73;5.00;;;1.00;93.60;;;;;;4978179;28;20096;-66
2021/04/12 05:51:59;;;;;;;16.30;4.93;;;1.00;93.30;;;;;;4983594;28;20450;-67
2021/04/12 05:54:31;;;;;;;11.35;4.25;;;1.10;93.20;;;;;;4973655;28;20050;-67
2021/04/12 05:56:59;;;;;;;15.50;4.45;;;1.00;93.10;;;;;;4985725;28;20081;-66
2021/04/12 05:59:59;;;;;;;8.38;3.70;;;1.00;92.90;;;;;;4980264;28;20034;-66
2021/04/12 06:02:33;;;;;;;8.45;3.85;;;1.00;92.90;;;;;;4978848;28;20073;-66
2021/04/12 06:05:18;;;;;;;9.68;4.20;;;1.00;92.90;;;;;;4984909;28;20426;-66
2021/04/12 06:08:15;;;;;;;7.38;3.95;;;1.10;92.80;;;;;;4978476;28;20257;-66
2021/04/12 06:10:46;;;;;;;11.98;4.22;;;1.20;92.90;;;;;;4978724;28;20048;-66
2021/04/12 06:13:30;;;;;;;9.80;3.83;;;1.30;92.70;;;;;;4975250;28;20045;-66
2021/04/12 06:16:34;;;;;;;10.00;4.38;;;1.30;92.60;;;;;;4983302;28;20034;-66
2021/04/12 06:19:08;;;;;;;8.30;3.85;;;1.40;92.30;;;;;;4979413;28;20034;-67
2021/04/12 06:21:48;;;;;;;8.00;3.78;;;1.50;92.20;;;;;;4977445;28;20551;-67
2021/04/12 06:24:35;;;;;;;11.90;4.40;;;1.70;92.10;;;;;;4973756;28;20426;-67
2021/04/12 06:27:40;;;;;;;11.70;3.70;;;1.70;91.50;;;;;;4982667;28;20737;-66
2021/04/12 06:30:35;;;;;;;11.07;3.70;;;1.90;91.10;;;;;;4977207;28;20384;-65
2021/04/12 06:33:20;;;;;;;6.47;3.40;;;2.10;90.80;;;;;;4980946;28;20077;-66
2021/04/12 06:35:57;;;;;;;8.48;3.92;;;2.10;90.40;;;;;;4979374;28;20044;-67
2021/04/12 06:38:31;;;;;;;6.82;3.80;;;2.10;90.50;;;;;;4977765;28;20023;-66
2021/04/12 06:41:32;;;;;;;6.57;3.22;;;2.20;90.30;;;;;;4978438;28;20035;-66
2021/04/12 06:44:06;;;;;;;8.07;3.60;;;2.40;90.60;;;;;;4975433;28;20037;-66
2021/04/12 06:46:59;;;;;;;7.78;4.00;;;2.50;89.80;;;;;;4977833;28;20146;-66
2021/04/12 06:49:47;;;;;;;10.32;3.78;;;2.60;89.60;;;;;;4961533;28;20096;-66
2021/04/12 06:52:48;;;;;;;6.13;3.03;;;2.70;89.20;;;;;;4979119;28;20034;-66
2021/04/12 06:55:25;;;;;;;7.35;3.22;;;2.80;88.70;;;;;;4986644;28;20041;-67
2021/04/12 06:58:18;;;;;;;6.60;3.08;;;3.00;88.40;;;;;;4985127;28;20126;-66
2021/04/12 07:00:44;;;;;;;9.50;2.95;;;3.00;87.70;;;;;;4980996;28;20360;-66
2021/04/12 07:03:28;;;;;;;7.20;3.17;;;3.10;87.20;;;;;;4979039;28;20038;-67
2021/04/12 07:06:32;;;;;;;6.80;3.60;;;3.40;88.00;;;;;;4986978;28;20027;-67
2021/04/12 07:09:29;;;;;;;6.80;2.70;;;3.50;87.00;;;;;;4976137;28;20450;-67
2021/04/12 07:12:17;;;;;;;7.35;2.90;;;3.30;86.20;;;;;;4981842;28;22256;-66
2021/04/12 07:15:13;;;;;;;7.78;2.42;;;3.40;86.20;;;;;;4974982;28;20027;-67
2021/04/12 07:18:16;;;;;;;5.53;2.40;;;3.50;85.50;;;;;;4968765;28;20027;-67
2021/04/12 07:21:19;;;;;;;8.02;2.50;;;3.70;85.40;;;;;;4977858;28;20031;-67
2021/04/12 07:24:16;;;;;;;4.90;2.70;;;3.80;85.30;;;;;;4981345;28;20393;-66
2021/04/12 07:27:12;;;;;;;8.43;2.40;;;4.10;84.80;;;;;;4990939;28;20023;-69
2021/04/12 07:30:08;;;;;;;10.43;2.33;;;3.90;84.40;;;;;;4988620;28;20041;-66
2021/04/12 07:32:51;;;;;;;4.60;2.50;;;4.00;84.30;;;;;;4990285;28;20076;-67
2021/04/12 07:35:47;;;;;;;5.93;2.15;;;4.20;84.40;;;;;;4990016;28;20027;-67
2021/04/12 07:38:31;;;;;;;8.13;2.60;;;4.20;83.70;;;;;;4975293;28;20030;-67
2021/04/12 07:41:30;;;;;;;7.55;2.40;;;4.40;83.50;;;;;;4980351;28;20031;-67
2021/04/12 07:44:14;;;;;;;5.47;2.30;;;4.40;82.60;;;;;;4981936;28;20044;-67
2021/04/12 07:46:48;;;;;;;8.45;2.47;;;4.50;82.90;;;;;;4990201;28;20487;-66
2021/04/12 07:49:32;;;;;;;6.68;2.60;;;4.70;82.20;;;;;;4983969;28;20113;-67
2021/04/12 07:52:45;;;;;;;8.60;2.25;;;4.80;81.80;;;;;;4981546;28;20037;-66
2021/04/12 07:55:36;;;;;;;6.40;2.33;;;4.80;82.20;;;;;;4907264;29;20477;-68
2021/04/12 07:58:23;;;;;;;6.47;2.13;;;5.20;82.40;;;;;;4979307;28;20069;-67
2021/04/12 08:01:16;;;;;;;5.25;2.00;;;5.30;80.60;;;;;;4982513;28;20588;-67
2021/04/12 08:04:13;;;;;;;7.22;2.30;;;5.20;80.80;;;;;;4982912;28;20060;-67
2021/04/12 08:06:57;;;;;;;8.60;1.85;;;5.60;80.30;;;;;;4987308;28;20652;-67
2021/04/12 08:09:47;;;;;;;7.57;2.10;;;5.50;79.30;;;;;;4980911;28;20034;-66
2021/04/12 08:12:35;;;;;;;4.20;1.77;;;5.70;79.20;;;;;;4983641;28;20372;-66
2021/04/12 08:15:34;;;;;;;6.43;1.65;;;5.60;77.30;;;;;;4987326;28;20045;-67
2021/04/12 08:18:19;;;;;;;4.28;1.73;;;5.90;77.70;;;;;;4984364;28;20049;-66
2021/04/12 08:20:50;;;;;;;5.38;1.67;;;6.10;76.30;;;;;;4985973;28;20101;-68
2021/04/12 08:23:25;;;;;;;;;;;5.80;76.90;;;;;;4989402;28;20081;-67
2021/04/12 08:26:05;;;;;;;7.00;1.50;;;5.60;75.40;;;;;;5001994;28;19910;-66
2021/04/12 08:28:55;;;;;;;5.63;1.40;;;6.30;75.80;;;;;;4976628;28;20042;-67
2021/04/12 08:31:39;;;;;;;7.07;1.40;;;6.30;73.00;;;;;;4982246;28;20057;-67
2021/04/12 08:34:23;;;;;;;5.78;1.73;;;6.10;73.20;;;;;;4986533;28;20118;-67
2021/04/12 08:37:13;;;;;;;9.10;1.63;;;6.00;74.80;;;;;;4989090;28;20402;-67
2021/04/12 08:40:16;;;;;;;5.20;1.45;;;6.80;74.70;;;;;;4974601;28;20608;-67
2021/04/12 08:42:57;;;;;;;8.13;1.70;;;7.10;72.90;;;;;;4986219;28;20073;-67
2021/04/12 08:45:31;;;;;;;7.78;1.45;;;7.60;70.50;;;;;;4983413;28;20030;-67
2021/04/12 08:48:21;;;;;;;3.80;1.10;;;7.30;67.70;;;;;;4981192;28;20065;-67
2021/04/12 08:50:49;;;;;;;6.05;1.08;;;7.00;66.60;;;;;;4987596;28;20653;-68
2021/04/12 08:53:48;;;;;;;2.00;0.80;;;6.80;68.40;;;;;;4987480;28;20034;-67
2021/04/12 08:56:37;;;;;;;3.90;1.23;;;6.30;68.70;;;;;;4983006;28;20375;-67
2021/04/12 08:59:20;;;;;;;3.85;1.08;;;6.10;69.00;;;;;;4987049;28;20018;-66
2021/04/12 09:02:07;;;;;;;4.95;0.95;;;6.10;69.80;;;;;;4982510;28;20031;-66
2021/04/12 09:04:58;;;;;;;3.75;0.90;;;5.90;68.50;;;;;;4971373;28;20030;-67
2021/04/12 09:07:56;;;;;;;6.65;1.10;;;5.90;68.60;;;;;;4984096;28;20034;-67
2021/04/12 09:10:45;;;;;;;2.47;0.80;;;6.20;69.30;;;;;;4984352;28;20022;-67
2021/04/12 09:13:55;;;;;;;6.70;0.93;;;6.30;66.90;;;;;;4987391;28;20376;-67
2021/04/12 09:16:45;;;;;;;4.30;0.98;;;7.00;65.00;;;;;;4983062;28;20076;-66
2021/04/12 09:19:49;;;;;;;7.88;1.15;;;6.50;66.80;;;;;;4978026;28;20482;-66
2021/04/12 09:22:52;;;;;;;5.28;1.08;;;6.20;67.70;;;;;;4987805;28;20117;-67
2021/04/12 09:25:36;;;;;;;3.03;0.98;;;6.50;68.90;;;;;;4974488;28;20046;-67
2021/04/12 09:28:34;;;;;;;9.15;1.40;;;6.20;69.10;;;;;;4977763;28;20031;-66
2021/04/12 09:31:18;;;;;;;8.77;1.50;;;5.90;69.10;;;;;;4984564;28;20605;-66
2021/04/12 09:33:53;;;;;;;4.65;1.10;;;5.90;70.10;;;;;;4986506;28;20125;-67
2021/04/12 09:36:46;;;;;;;4.78;1.25;;;5.80;70.30;;;;;;4981146;28;20431;-67
2021/04/12 09:39:33;;;;;;;3.22;1.20;;;6.00;71.00;;;;;;4984892;28;20042;-67
2021/04/12 09:42:37;;;;;;;5.45;1.08;;;6.90;67.10;;;;;;4992646;28;20038;-67
2021/04/12 09:45:40;;;;;;;3.40;1.00;;;7.70;65.60;;;;;;4982363;28;20109;-66
2021/04/12 09:48:24;;;;;;;2.67;1.00;;;7.70;64.60;;;;;;4978397;28;20120;-68
2021/04/12 09:51:29;;;;;;;4.50;0.93;;;7.00;65.00;;;;;;4982511;28;20027;-66
2021/04/12 09:54:06;;;;;;;6.97;1.40;;;6.80;66.40;;;;;;4980410;28;20026;-68
2021/04/12 09:56:51;;;;;;;1.98;0.90;;;6.60;66.40;;;;;;4980947;28;20084;-66
2021/04/12 09:59:37;;;;;;;3.15;1.00;;;6.30;66.80;;;;;;4969323;28;20022;-67
2021/04/12 10:02:24;;;;;;;5.20;1.02;;;6.20;66.20;;;;;;4977600;28;20023;-68
2021/04/12 10:05:35;;;;;;;3.20;1.00;;;6.30;66.30;;;;;;4976984;28;20053;-66
2021/04/12 10:08:23;;;;;;;2.75;0.80;;;6.20;66.30;;;;;;4974327;28;20113;-68
2021/04/12 10:11:11;;;;;;;2.17;1.00;;;6.20;65.50;;;;;;4973878;28;20042;-67
2021/04/12 10:13:54;;;;;;;2.97;1.00;;;6.10;65.30;;;;;;4982707;28;20074;-66
2021/04/12 10:16:21;;;;;;;2.90;1.00;;;6.30;65.10;;;;;;4976563;28;20093;-67
2021/04/12 10:19:16;;;;;;;6.78;1.38;;;6.20;64.10;;;;;;4980400;28;20058;-68
2021/04/12 10:21:53;;;;;;;5.47;1.50;;;6.30;65.10;;;;;;4986393;28;20606;-67
2021/04/12 10:24:28;;;;;;;5.25;1.55;;;6.20;66.10;;;;;;4982484;28;20092;-67
2021/04/12 10:27:15;;;;;;;5.38;1.20;;;6.50;64.60;;;;;;4978824;28;20030;-66
2021/04/12 10:29:49;;;;;;;4.43;0.95;;;7.20;64.00;;;;;;4983488;28;20031;-67
2021/04/12 10:32:40;;;;;;;1.98;0.75;;;7.70;60.40;;;;;;4983189;28;20030;-67
2021/04/12 10:35:32;;;;;;;1.80;0.82;;;7.70;55.30;;;;;;4978298;28;20033;-67
2021/04/12 10:38:17;;;;;;;1.63;0.50;;;7.50;56.80;;;;;;4977330;28;20498;-67
2021/04/12 10:40:59;;;;;;;3.50;0.70;;;7.60;56.60;;;;;;4979046;28;20131;-66
2021/04/12 10:43:38;;;;;;;3.08;0.80;;;7.80;58.50;;;;;;4982649;28;20046;-67
2021/04/12 10:46:31;;;;;;;2.10;0.88;;;7.50;59.00;;;;;;4974803;28;20112;-68
2021/04/12 10:49:11;;;;;;;4.38;1.08;;;7.20;61.10;;;;;;4982337;28;20134;-65
2021/04/12 10:51:46;;;;;;;0.90;0.68;;;7.60;61.00;;;;;;4978008;28;20041;-68
2021/04/12 10:54:27;;;;;;;2.25;0.70;;;8.40;60.70;;;;;;4963184;28;20510;-67
2021/04/12 10:57:14;;;;;;;3.47;0.93;;;9.00;57.50;;;;;;4974210;28;20031;-68
2021/04/12 10:59:48;;;;;;;1.73;0.70;;;9.00;54.80;;;;;;4980992;28;20026;-68
2021/04/12 11:02:41;;;;;;;4.07;0.98;;;9.60;53.70;;;;;;4975456;28;20038;-69
2021/04/12 11:05:13;;;;;;;1.35;0.50;;;10.00;52.00;;;;;;4979667;28;20031;-68
2021/04/12 11:08:18;;;;;;;2.33;0.60;;;9.60;49.50;;;;;;4989307;28;20034;-68
2021/04/12 11:11:11;;;;;;;1.92;0.70;;;9.50;51.00;;;;;;4983154;28;20054;-67
2021/04/12 11:13:55;;;;;;;1.73;0.57;;;9.10;52.20;;;;;;4980125;28;20026;-67
2021/04/12 11:16:21;;;;;;;4.55;0.50;;;8.00;57.60;;;;;;4975448;28;20034;-67
2021/04/12 11:19:18;;;;;;;1.13;0.50;;;7.40;64.70;;;;;;4984267;28;20035;-67
2021/04/12 11:21:51;;;;;;;3.15;0.57;;;6.90;63.00;;;;;;4986821;28;20031;-66
2021/04/12 11:24:41;;;;;;;1.58;0.50;;;6.80;64.70;;;;;;4973321;28;20407;-67
2021/04/12 11:27:25;;;;;;;2.30;0.95;;;7.00;67.10;;;;;;4990958;28;20073;-66
2021/04/12 11:30:33;;;;;;;4.13;0.80;;;6.80;64.60;;;;;;4975082;28;20026;-66
2021/04/12 11:33:36;;;;;;;2.50;0.70;;;7.30;65.50;;;;;;4971819;28;20050;-66
2021/04/12 11:36:32;;;;;;;5.13;0.57;;;8.30;61.70;;;;;;4981608;28;20691;-66
2021/04/12 11:39:19;;;;;;;2.15;0.70;;;9.30;58.90;;;;;;4983267;28;20403;-66
2021/04/12 11:41:45;;;;;;;2.00;0.60;;;8.70;56.00;;;;;;4985845;28;20030;-67
2021/04/12 11:44:19;;;;;;;0.98;0.50;;;8.10;59.60;;;;;;4979738;28;20072;-67
2021/04/12 11:47:08;;;;;;;0.90;0.55;;;7.90;60.20;;;;;;4979891;28;20054;-67
2021/04/12 11:49:45;;;;;;;1.65;0.57;;;8.30;59.50;;;;;;4980447;28;20359;-67
2021/04/12 11:52:21;;;;;;;1.08;0.50;;;9.30;57.30;;;;;;4984686;28;20025;-67
2021/04/12 11:55:19;;;;;;;2.90;0.45;;;10.20;54.10;;;;;;4982407;28;20034;-67
2021/04/12 11:58:15;;;;;;;2.47;0.50;;;10.60;49.00;;;;;;4988302;28;20060;-67
2021/04/12 12:00:51;;;;;;;1.10;0.45;;;10.10;47.60;;;;;;4979594;28;20168;-67
2021/04/12 12:03:43;;;;;;;0.90;0.50;;;10.70;45.90;;;;;;4963740;28;20037;-67
2021/04/12 12:06:15;;;;;;;1.48;0.60;;;10.70;45.00;;;;;;4973977;28;20050;-67
2021/04/12 12:09:01;;;;;;;1.73;0.45;;;10.30;44.30;;;;;;4980319;28;20027;-67
2021/04/12 12:11:54;;;;;;;1.85;0.75;;;10.40;46.90;;;;;;4981741;28;20066;-67
2021/04/12 12:14:29;;;;;;;2.13;0.80;;;10.30;48.00;;;;;;4979315;28;20047;-67
2021/04/12 12:16:56;;;;;;;1.50;0.60;;;9.90;48.50;;;;;;4978817;28;20046;-66
2021/04/12 12:19:29;;;;;;;2.90;0.80;;;9.50;47.60;;;;;;4971549;28;20065;-66
2021/04/12 12:22:13;;;;;;;2.38;0.93;;;9.10;45.20;;;;;;4981871;28;20502;-66
2021/04/12 12:24:41;;;;;;;1.83;0.85;;;9.00;47.90;;;;;;4977062;28;20030;-67
2021/04/12 12:27:16;;;;;;;2.20;0.57;;;8.30;50.70;;;;;;4975336;28;20027;-67
2021/04/12 12:29:59;;;;;;;0.90;0.70;;;8.30;50.40;;;;;;4973820;28;20041;-67
2021/04/12 12:32:40;;;;;;;6.45;0.70;;;9.60;47.80;;;;;;4976235;28;20572;-66
2021/04/12 12:35:15;;;;;;;1.70;0.43;;;10.40;40.10;;;;;;4975036;28;20262;-67
2021/04/12 12:38:09;;;;;;;1.98;0.75;;;9.30;37.20;;;;;;4977155;28;20042;-67
2021/04/12 12:40:49;;;;;;;1.88;0.80;;;9.80;42.50;;;;;;4978140;28;20057;-68
2021/04/12 12:43:33;;;;;;;2.67;0.80;;;9.90;42.40;;;;;;4970700;28;20506;-67
2021/04/12 12:46:22;;;;;;;2.83;0.50;;;10.20;42.90;;;;;;4971852;28;20112;-67
2021/04/12 12:48:55;;;;;;;2.92;0.80;;;10.80;38.50;;;;;;4976855;28;20522;-66
2021/04/12 12:51:32;;;;;;;2.22;0.80;;;11.10;39.90;;;;;;4971136;28;20041;-68
2021/04/12 12:54:03;;;;;;;2.97;0.90;;;11.20;38.90;;;;;;4985343;28;20520;-66
2021/04/12 12:56:29;;;;;;;;;;;11.80;39.60;;;;;;4972467;28;20122;-67
2021/04/12 12:58:59;;;;;;;2.90;0.55;;;12.10;39.10;;;;;;4973909;28;19922;-68
2021/04/12 13:01:35;;;;;;;2.83;0.50;;;11.90;37.90;;;;;;4979400;28;20333;-67
2021/04/12 13:04:16;;;;;;;0.95;0.45;;;12.60;37.20;;;;;;4979031;28;20030;-67
2021/04/12 13:06:45;;;;;;;2.30;0.82;;;11.10;41.10;;;;;;4968047;28;20029;-66
2021/04/12 13:09:24;;;;;;;3.22;0.77;;;9.90;43.70;;;;;;4975158;28;20427;-67
2021/04/12 13:11:53;;;;;;;1.55;0.50;;;9.60;45.90;;;;;;4979793;28;20026;-65
2021/04/12 13:14:34;;;;;;;3.55;0.60;;;10.70;44.70;;;;;;4973331;28;20184;-67
2021/04/12 13:17:21;;;;;;;1.65;0.65;;;10.30;44.00;;;;;;4971890;28;20128;-67
2021/04/12 13:19:51;;;;;;;2.92;0.90;;;11.60;43.00;;;;;;4962750;28;20299;-66
2021/04/12 13:22:26;;;;;;;4.85;0.57;;;10.60;42.70;;;;;;4974998;28;20042;-65
2021/04/12 13:24:52;;;;;;;2.83;0.80;;;10.00;44.30;;;;;;4982072;28;20076;-66
2021/04/12 13:27:23;;;;;;;1.38;0.60;;;9.50;45.40;;;;;;4981200;28;20015;-65
2021/04/12 13:29:59;;;;;;;4.05;0.70;;;9.50;47.30;;;;;;4974205;28;20038;-65
2021/04/12 13:32:37;;;;;;;2.72;0.70;;;9.30;46.60;;;;;;4973797;28;20081;-66
2021/04/12 13:35:14;;;;;;;2.70;0.60;;;9.30;44.40;;;;;;4970263;28;20038;-65
2021/04/12 13:37:48;;;;;;;3.40;0.75;;;9.10;43.60;;;;;;4979827;28;20494;-66
2021/04/12 13:40:36;;;;;;;2.55;0.70;;;8.60;42.30;;;;;;4977689;28;20422;-66
2021/04/12 13:43:07;;;;;;;1.08;0.57;;;8.60;43.50;;;;;;4979034;28;20062;-66
2021/04/12 13:45:34;;;;;;;4.15;0.98;;;8.30;42.80;;;;;;4970264;28;20015;-67
2021/04/12 13:48:10;;;;;;;3.97;0.80;;;8.30;43.70;;;;;;4980639;28;20046;-65
2021/04/12 13:50:51;;;;;;;2.17;0.80;;;8.30;44.10;;;;;;4977808;28;20039;-65
2021/04/12 13:53:38;;;;;;;3.30;0.70;;;8.80;44.20;;;;;;4982077;28;20033;-66
2021/04/12 13:56:10;;;;;;;4.55;1.00;;;9.70;42.80;;;;;;4970449;28;20030;-66
2021/04/12 13:58:40;;;;;;;;;;;9.10;44.20;;;;;;4970678;28;20058;-65
2021/04/12 14:01:08;;;;;;;4.70;1.00;;;8.70;44.30;;;;;;4977837;28;20005;-65
2021/04/12 14:03:42;;;;;;;4.10;0.60;;;8.60;46.20;;;;;;4965109;28;20039;-66
2021/04/12 14:06:26;;;;;;;1.80;0.70;;;8.50;45.10;;;;;;4972199;28;20165;-66
2021/04/12 14:08:55;;;;;;;4.82;0.80;;;8.30;46.00;;;;;;4973239;28;20451;-66
2021/04/12 14:11:38;;;;;;;4.22;0.70;;;8.30;45.60;;;;;;4979475;28;20026;-66
2021/04/12 14:14:24;;;;;;;3.00;0.80;;;8.10;46.00;;;;;;4977318;28;20022;-67
2021/04/12 14:17:16;;;;;;;1.45;0.60;;;8.10;45.00;;;;;;4971820;28;20490;-66
2021/04/12 14:19:50;;;;;;;2.22;0.82;;;8.60;45.20;;;;;;4971099;28;20046;-65
2021/04/12 14:22:19;;;;;;;1.02;0.70;;;8.60;42.90;;;;;;4971651;28;20116;-67